Tuesday, February 20, 2018, 9:38 AM GMT
Back to Local

CWST, La Pocatiere

Location: , , Canada Lat: 47.35
Local Time: 9:38 AM GMT ( 9:38 GMT) Lon: -70.033
Time Zone: GMT Elev: 101 ft

Show me the last for .
Show Decoded

2018-02-20 09:00 METAR CWST 200900Z AUTO 06002KT 01/00 RMK AO1 2PAST HR SOG 22 1019 SLP238 P0001
                 T00070000 50004 =
2018-02-20 08:00 METAR CWST 200800Z AUTO 06002KT 01/M00 RMK AO1 2PAST HR SOG 22 1015 SLP232 P0001
                 T00081002 50002 =
2018-02-20 07:00 METAR CWST 200700Z AUTO 23002KT 02/00 RMK AO1 SOG 22 3011 SLP231 T00160000 =
2018-02-20 06:00 METAR CWST 200600Z AUTO 22007KT 03/M01 RMK AO1 SOG 22 1003 SLP219 T00281006 =
2018-02-20 05:00 METAR CWST 200500Z AUTO 21011KT 03/M01 RMK AO1 SOG 22 0002 SLP217 T00311006 =
2018-02-20 04:00 METAR CWST 200400Z AUTO 21012KT 03/M01 RMK AO1 SOG 22 1011 SLP220 T00331009 =
2018-02-20 03:00 METAR CWST 200300Z AUTO 22012KT 03/M02 RMK AO1 SOG 22 2008 SLP216 T00301023 =
2018-02-20 02:00 METAR CWST 200200Z AUTO 21009KT 04/M04 RMK AO1 SOG 22 3009 SLP215 T00401037 =
2018-02-20 01:00 METAR CWST 200100Z AUTO 20007KT 05/M04 RMK AO1 SOG 22 5004 SLP209 T00461043 =
2018-02-20 00:00 METAR CWST 200000Z AUTO 19009KT 04/M05 RMK AO1 SOG 22 5005 SLP208 T00441048 =
2018-02-19 23:00 METAR CWST 192300Z AUTO 20007KT 03/M04 RMK AO1 SOG 22 8008 SLP206 T00331035 =
2018-02-19 22:00 METAR CWST 192200Z AUTO 21008KT 03/M05 RMK AO1 SOG 22 6004 SLP213 T00281048 =
2018-02-19 21:00 METAR CWST 192100Z AUTO 22007KT 02/M05 RMK AO1 SOG 22 6009 SLP213 T00171053 =
2018-02-19 20:00 METAR CWST 192000Z AUTO 24006KT 03/M05 RMK AO1 SOG 21 6021 SLP214 T00281052 =
2018-02-19 19:00 METAR CWST 191900Z AUTO 23010KT 01/M05 RMK AO1 SOG 21 6029 SLP217 T00131049 =
2018-02-19 18:00 METAR CWST 191800Z AUTO 24009KT 01/M05 RMK AO1 SOG 21 8029 SLP222 T00121052 =
2018-02-19 17:00 METAR CWST 191700Z AUTO 23007KT M00/M05 RMK AO1 SOG 21 6032 SLP235 T10021049 =
2018-02-19 16:00 METAR CWST 191600Z AUTO 01001KT M01/M05 RMK AO1 SOG 21 8025 SLP247 T10061053 =
2018-02-19 15:00 METAR CWST 191500Z AUTO 18002KT M02/M08 RMK AO1 SOG 21 8035 SLP252 T10201076 =
2018-02-19 14:00 METAR CWST 191400Z AUTO 25002KT M03/M08 RMK AO1 SOG 21 8020 PK WND 16017/1302
                 SLP268 T10261078 =
2018-02-19 13:00 METAR CWST 191300Z AUTO 16011G17KT M03/M08 RMK AO1 SOG 21 8009 PK WND 15018/1245
                 SLP272 T10341083 =
2018-02-19 12:00 METAR CWST 191200Z AUTO 16007KT M04/M09 RMK AO1 SOG 22 0008 SLP287 T10441087 =
2018-02-19 11:00 METAR CWST 191100Z AUTO 16008KT M05/M09 RMK AO1 SOG 22 3009 SLP288 T10511094 =
2018-02-19 10:00 METAR CWST 191000Z AUTO 16011KT M05/M09 RMK AO1 SOG 22 5000 SLP281 T10471093 =

Support USWX by starting your Amazon purchase here.